sensor_id;sensor_type;location;lat;lon;timestamp;P1;durP1;ratioP1;P2;durP2;ratioP2
11763;SDS011;5939;56.522;14.950;2023-04-01T00:00:54;6.23;;;3.17;;
11763;SDS011;5939;56.522;14.950;2023-04-01T00:03:21;3.07;;;2.67;;
11763;SDS011;5939;56.522;14.950;2023-04-01T00:05:47;3.37;;;2.73;;
11763;SDS011;5939;56.522;14.950;2023-04-01T00:08:13;3.97;;;3.03;;
11763;SDS011;5939;56.522;14.950;2023-04-01T00:10:40;4.50;;;3.33;;
11763;SDS011;5939;56.522;14.950;2023-04-01T00:13:05;3.80;;;2.87;;
11763;SDS011;5939;56.522;14.950;2023-04-01T00:15:32;4.17;;;3.20;;
11763;SDS011;5939;56.522;14.950;2023-04-01T00:17:58;3.27;;;2.80;;
11763;SDS011;5939;56.522;14.950;2023-04-01T00:20:24;3.77;;;2.90;;
11763;SDS011;5939;56.522;14.950;2023-04-01T00:22:50;3.40;;;2.57;;
11763;SDS011;5939;56.522;14.950;2023-04-01T00:25:16;2.80;;;2.43;;
11763;SDS011;5939;56.522;14.950;2023-04-01T00:27:43;3.53;;;2.90;;
11763;SDS011;5939;56.522;14.950;2023-04-01T00:30:09;3.60;;;2.83;;
11763;SDS011;5939;56.522;14.950;2023-04-01T00:32:35;5.00;;;3.60;;
11763;SDS011;5939;56.522;14.950;2023-04-01T00:35:01;4.87;;;2.90;;
11763;SDS011;5939;56.522;14.950;2023-04-01T00:37:27;3.87;;;2.77;;
11763;SDS011;5939;56.522;14.950;2023-04-01T00:39:54;4.60;;;2.80;;
11763;SDS011;5939;56.522;14.950;2023-04-01T00:42:20;6.23;;;3.43;;
11763;SDS011;5939;56.522;14.950;2023-04-01T00:44:53;4.43;;;3.40;;
11763;SDS011;5939;56.522;14.950;2023-04-01T00:47:20;4.17;;;2.90;;
11763;SDS011;5939;56.522;14.950;2023-04-01T00:49:48;3.80;;;3.20;;
11763;SDS011;5939;56.522;14.950;2023-04-01T00:52:21;4.30;;;2.90;;
11763;SDS011;5939;56.522;14.950;2023-04-01T00:54:50;5.00;;;3.00;;
11763;SDS011;5939;56.522;14.950;2023-04-01T00:57:29;4.70;;;3.20;;
11763;SDS011;5939;56.522;14.950;2023-04-01T00:59:59;5.07;;;3.23;;
11763;SDS011;5939;56.522;14.950;2023-04-01T01:02:25;3.77;;;2.93;;
11763;SDS011;5939;56.522;14.950;2023-04-01T01:04:51;4.23;;;2.70;;
11763;SDS011;5939;56.522;14.950;2023-04-01T01:07:32;3.97;;;3.00;;
11763;SDS011;5939;56.522;14.950;2023-04-01T01:15:23;4.40;;;2.90;;
11763;SDS011;5939;56.522;14.950;2023-04-01T01:35:28;4.17;;;2.87;;
11763;SDS011;5939;56.522;14.950;2023-04-01T01:37:43;3.23;;;2.87;;
11763;SDS011;5939;56.522;14.950;2023-04-01T01:40:11;3.27;;;2.80;;
11763;SDS011;5939;56.522;14.950;2023-04-01T01:42:41;3.20;;;2.80;;
11763;SDS011;5939;56.522;14.950;2023-04-01T01:45:12;5.00;;;3.30;;
11763;SDS011;5939;56.522;14.950;2023-04-01T01:47:43;3.20;;;2.90;;
11763;SDS011;5939;56.522;14.950;2023-04-01T01:50:10;4.03;;;3.20;;
11763;SDS011;5939;56.522;14.950;2023-04-01T01:52:37;3.20;;;2.50;;
11763;SDS011;5939;56.522;14.950;2023-04-01T01:55:03;4.47;;;2.90;;
11763;SDS011;5939;56.522;14.950;2023-04-01T01:57:48;3.20;;;2.83;;
11763;SDS011;5939;56.522;14.950;2023-04-01T02:00:14;4.63;;;3.03;;
11763;SDS011;5939;56.522;14.950;2023-04-01T02:02:42;3.10;;;2.47;;
11763;SDS011;5939;56.522;14.950;2023-04-01T02:05:10;4.47;;;2.90;;
11763;SDS011;5939;56.522;14.950;2023-04-01T02:07:48;3.33;;;2.87;;
11763;SDS011;5939;56.522;14.950;2023-04-01T02:10:19;3.20;;;2.43;;
11763;SDS011;5939;56.522;14.950;2023-04-01T02:12:47;3.77;;;2.50;;
11763;SDS011;5939;56.522;14.950;2023-04-01T02:15:14;2.40;;;2.20;;
11763;SDS011;5939;56.522;14.950;2023-04-01T02:17:44;3.90;;;2.47;;
11763;SDS011;5939;56.522;14.950;2023-04-01T02:20:19;3.00;;;2.30;;
11763;SDS011;5939;56.522;14.950;2023-04-01T02:22:48;3.77;;;2.53;;
11763;SDS011;5939;56.522;14.950;2023-04-01T02:25:23;2.67;;;2.47;;
11763;SDS011;5939;56.522;14.950;2023-04-01T02:28:01;3.27;;;2.57;;
11763;SDS011;5939;56.522;14.950;2023-04-01T02:30:30;2.97;;;2.27;;
11763;SDS011;5939;56.522;14.950;2023-04-01T02:32:58;3.97;;;2.43;;
11763;SDS011;5939;56.522;14.950;2023-04-01T02:35:24;2.83;;;2.23;;
11763;SDS011;5939;56.522;14.950;2023-04-01T02:37:51;4.30;;;2.57;;
11763;SDS011;5939;56.522;14.950;2023-04-01T02:40:18;3.23;;;2.60;;
11763;SDS011;5939;56.522;14.950;2023-04-01T02:42:44;2.77;;;2.40;;
11763;SDS011;5939;56.522;14.950;2023-04-01T02:45:10;3.27;;;2.20;;
11763;SDS011;5939;56.522;14.950;2023-04-01T02:47:37;3.80;;;2.43;;
11763;SDS011;5939;56.522;14.950;2023-04-01T02:50:03;3.50;;;2.00;;
11763;SDS011;5939;56.522;14.950;2023-04-01T02:52:30;3.03;;;2.00;;
11763;SDS011;5939;56.522;14.950;2023-04-01T02:54:56;2.67;;;2.10;;
11763;SDS011;5939;56.522;14.950;2023-04-01T02:57:23;2.63;;;2.17;;
11763;SDS011;5939;56.522;14.950;2023-04-01T02:59:49;2.47;;;2.17;;
11763;SDS011;5939;56.522;14.950;2023-04-01T03:02:15;2.70;;;2.13;;
11763;SDS011;5939;56.522;14.950;2023-04-01T03:04:41;2.90;;;2.00;;
11763;SDS011;5939;56.522;14.950;2023-04-01T03:07:07;2.37;;;2.00;;
11763;SDS011;5939;56.522;14.950;2023-04-01T03:09:34;2.10;;;1.80;;
11763;SDS011;5939;56.522;14.950;2023-04-01T03:12:01;2.03;;;1.70;;
11763;SDS011;5939;56.522;14.950;2023-04-01T03:14:27;4.53;;;2.07;;
11763;SDS011;5939;56.522;14.950;2023-04-01T03:16:52;2.20;;;1.70;;
11763;SDS011;5939;56.522;14.950;2023-04-01T03:19:18;2.87;;;2.00;;
11763;SDS011;5939;56.522;14.950;2023-04-01T03:21:44;2.27;;;1.90;;
11763;SDS011;5939;56.522;14.950;2023-04-01T03:24:10;2.00;;;1.43;;
11763;SDS011;5939;56.522;14.950;2023-04-01T03:26:35;2.30;;;1.83;;
11763;SDS011;5939;56.522;14.950;2023-04-01T03:29:01;3.53;;;2.20;;
11763;SDS011;5939;56.522;14.950;2023-04-01T03:31:27;2.10;;;1.70;;
11763;SDS011;5939;56.522;14.950;2023-04-01T03:33:52;1.80;;;1.50;;
11763;SDS011;5939;56.522;14.950;2023-04-01T03:36:18;1.80;;;1.70;;
11763;SDS011;5939;56.522;14.950;2023-04-01T03:38:44;4.30;;;1.90;;
11763;SDS011;5939;56.522;14.950;2023-04-01T03:41:16;2.37;;;1.47;;
11763;SDS011;5939;56.522;14.950;2023-04-01T03:43:43;2.77;;;1.40;;
11763;SDS011;5939;56.522;14.950;2023-04-01T03:46:09;2.30;;;1.60;;
11763;SDS011;5939;56.522;14.950;2023-04-01T03:48:34;1.53;;;1.43;;
11763;SDS011;5939;56.522;14.950;2023-04-01T03:51:00;2.63;;;1.50;;
11763;SDS011;5939;56.522;14.950;2023-04-01T03:53:26;1.97;;;1.40;;
11763;SDS011;5939;56.522;14.950;2023-04-01T03:55:52;3.53;;;1.53;;
11763;SDS011;5939;56.522;14.950;2023-04-01T03:58:18;2.70;;;1.80;;
11763;SDS011;5939;56.522;14.950;2023-04-01T04:00:44;2.77;;;1.73;;
11763;SDS011;5939;56.522;14.950;2023-04-01T04:03:10;1.80;;;1.60;;
11763;SDS011;5939;56.522;14.950;2023-04-01T04:05:36;2.50;;;1.63;;
11763;SDS011;5939;56.522;14.950;2023-04-01T04:08:02;3.13;;;1.53;;
11763;SDS011;5939;56.522;14.950;2023-04-01T04:10:28;3.00;;;1.40;;
11763;SDS011;5939;56.522;14.950;2023-04-01T04:12:54;2.67;;;1.57;;
11763;SDS011;5939;56.522;14.950;2023-04-01T04:15:20;2.50;;;1.60;;
11763;SDS011;5939;56.522;14.950;2023-04-01T04:17:46;1.43;;;1.30;;
11763;SDS011;5939;56.522;14.950;2023-04-01T04:20:12;3.27;;;1.40;;
11763;SDS011;5939;56.522;14.950;2023-04-01T04:22:38;2.67;;;1.40;;
11763;SDS011;5939;56.522;14.950;2023-04-01T04:25:04;2.07;;;1.57;;
11763;SDS011;5939;56.522;14.950;2023-04-01T04:27:30;1.67;;;1.30;;
11763;SDS011;5939;56.522;14.950;2023-04-01T04:29:56;1.60;;;1.50;;
11763;SDS011;5939;56.522;14.950;2023-04-01T04:32:22;2.90;;;1.47;;
11763;SDS011;5939;56.522;14.950;2023-04-01T04:34:47;3.10;;;1.40;;
11763;SDS011;5939;56.522;14.950;2023-04-01T04:37:13;1.60;;;1.50;;
11763;SDS011;5939;56.522;14.950;2023-04-01T04:39:38;3.07;;;1.23;;
11763;SDS011;5939;56.522;14.950;2023-04-01T04:42:05;2.30;;;1.43;;
11763;SDS011;5939;56.522;14.950;2023-04-01T04:44:30;1.50;;;1.40;;
11763;SDS011;5939;56.522;14.950;2023-04-01T04:46:56;1.63;;;1.13;;
11763;SDS011;5939;56.522;14.950;2023-04-01T04:49:22;2.70;;;1.30;;
11763;SDS011;5939;56.522;14.950;2023-04-01T04:51:47;1.33;;;1.23;;
11763;SDS011;5939;56.522;14.950;2023-04-01T04:54:13;2.30;;;1.50;;
11763;SDS011;5939;56.522;14.950;2023-04-01T04:56:39;3.30;;;1.30;;
11763;SDS011;5939;56.522;14.950;2023-04-01T04:59:05;1.33;;;1.23;;
11763;SDS011;5939;56.522;14.950;2023-04-01T05:01:31;3.37;;;1.50;;
11763;SDS011;5939;56.522;14.950;2023-04-01T05:03:58;2.03;;;1.40;;
11763;SDS011;5939;56.522;14.950;2023-04-01T05:06:24;2.07;;;1.23;;
11763;SDS011;5939;56.522;14.950;2023-04-01T05:08:50;3.80;;;1.70;;
11763;SDS011;5939;56.522;14.950;2023-04-01T05:11:17;2.07;;;1.40;;
11763;SDS011;5939;56.522;14.950;2023-04-01T05:13:44;2.00;;;1.30;;
11763;SDS011;5939;56.522;14.950;2023-04-01T05:16:10;2.37;;;1.20;;
11763;SDS011;5939;56.522;14.950;2023-04-01T05:18:38;1.20;;;1.10;;
11763;SDS011;5939;56.522;14.950;2023-04-01T05:21:04;1.50;;;1.20;;
11763;SDS011;5939;56.522;14.950;2023-04-01T05:23:31;1.57;;;1.30;;
11763;SDS011;5939;56.522;14.950;2023-04-01T05:25:58;2.07;;;1.43;;
11763;SDS011;5939;56.522;14.950;2023-04-01T05:28:24;1.60;;;1.40;;
11763;SDS011;5939;56.522;14.950;2023-04-01T05:30:49;3.30;;;1.67;;
11763;SDS011;5939;56.522;14.950;2023-04-01T05:33:15;2.27;;;1.20;;
11763;SDS011;5939;56.522;14.950;2023-04-01T05:35:41;3.73;;;1.40;;
11763;SDS011;5939;56.522;14.950;2023-04-01T05:38:06;2.97;;;1.23;;
11763;SDS011;5939;56.522;14.950;2023-04-01T05:40:32;3.60;;;1.30;;
11763;SDS011;5939;56.522;14.950;2023-04-01T05:42:58;2.20;;;1.40;;
11763;SDS011;5939;56.522;14.950;2023-04-01T05:45:25;1.63;;;1.17;;
11763;SDS011;5939;56.522;14.950;2023-04-01T05:47:51;2.90;;;1.30;;
11763;SDS011;5939;56.522;14.950;2023-04-01T05:50:17;1.57;;;1.47;;
11763;SDS011;5939;56.522;14.950;2023-04-01T05:52:42;1.50;;;1.17;;
11763;SDS011;5939;56.522;14.950;2023-04-01T05:55:09;2.33;;;1.20;;
11763;SDS011;5939;56.522;14.950;2023-04-01T05:57:35;2.20;;;1.30;;
11763;SDS011;5939;56.522;14.950;2023-04-01T06:00:01;1.50;;;1.20;;
11763;SDS011;5939;56.522;14.950;2023-04-01T06:02:27;2.20;;;1.33;;
11763;SDS011;5939;56.522;14.950;2023-04-01T06:05:03;2.70;;;1.23;;
11763;SDS011;5939;56.522;14.950;2023-04-01T06:07:38;3.70;;;1.30;;
11763;SDS011;5939;56.522;14.950;2023-04-01T06:10:08;1.50;;;1.33;;
11763;SDS011;5939;56.522;14.950;2023-04-01T06:31:23;1.50;;;1.40;;
11763;SDS011;5939;56.522;14.950;2023-04-01T06:34:05;2.27;;;1.30;;
11763;SDS011;5939;56.522;14.950;2023-04-01T06:42:39;1.77;;;1.33;;
11763;SDS011;5939;56.522;14.950;2023-04-01T06:53:24;1.53;;;1.23;;
11763;SDS011;5939;56.522;14.950;2023-04-01T06:58:31;1.30;;;1.07;;
11763;SDS011;5939;56.522;14.950;2023-04-01T07:01:03;2.73;;;1.40;;
11763;SDS011;5939;56.522;14.950;2023-04-01T07:06:23;2.83;;;1.60;;
11763;SDS011;5939;56.522;14.950;2023-04-01T07:08:52;2.33;;;1.40;;
11763;SDS011;5939;56.522;14.950;2023-04-01T07:11:23;1.70;;;1.50;;
11763;SDS011;5939;56.522;14.950;2023-04-01T07:14:04;1.90;;;1.30;;
11763;SDS011;5939;56.522;14.950;2023-04-01T07:16:32;1.77;;;1.23;;
11763;SDS011;5939;56.522;14.950;2023-04-01T07:21:42;1.87;;;1.37;;
11763;SDS011;5939;56.522;14.950;2023-04-01T07:24:55;2.67;;;1.30;;
11763;SDS011;5939;56.522;14.950;2023-04-01T07:27:05;1.93;;;1.30;;
11763;SDS011;5939;56.522;14.950;2023-04-01T07:29:34;3.43;;;1.50;;
11763;SDS011;5939;56.522;14.950;2023-04-01T07:32:17;3.37;;;1.20;;
11763;SDS011;5939;56.522;14.950;2023-04-01T07:35:19;2.07;;;1.40;;
11763;SDS011;5939;56.522;14.950;2023-04-01T07:43:25;2.97;;;1.50;;
11763;SDS011;5939;56.522;14.950;2023-04-01T07:48:46;2.00;;;1.40;;
11763;SDS011;5939;56.522;14.950;2023-04-01T07:56:40;2.97;;;1.30;;
11763;SDS011;5939;56.522;14.950;2023-04-01T07:59:34;1.30;;;1.20;;
11763;SDS011;5939;56.522;14.950;2023-04-01T08:10:49;1.80;;;1.10;;
11763;SDS011;5939;56.522;14.950;2023-04-01T08:19:21;1.43;;;1.20;;
11763;SDS011;5939;56.522;14.950;2023-04-01T08:22:12;2.40;;;1.40;;
11763;SDS011;5939;56.522;14.950;2023-04-01T08:24:45;1.50;;;1.40;;
11763;SDS011;5939;56.522;14.950;2023-04-01T08:27:16;1.90;;;1.00;;
11763;SDS011;5939;56.522;14.950;2023-04-01T08:30:06;2.07;;;1.30;;
11763;SDS011;5939;56.522;14.950;2023-04-01T08:32:41;1.33;;;1.23;;
11763;SDS011;5939;56.522;14.950;2023-04-01T08:35:20;1.40;;;1.20;;
11763;SDS011;5939;56.522;14.950;2023-04-01T08:37:54;1.60;;;1.30;;
11763;SDS011;5939;56.522;14.950;2023-04-01T08:40:32;4.10;;;1.30;;
11763;SDS011;5939;56.522;14.950;2023-04-01T09:02:51;1.50;;;1.10;;
11763;SDS011;5939;56.522;14.950;2023-04-01T09:19:05;2.53;;;0.97;;
11763;SDS011;5939;56.522;14.950;2023-04-01T09:22:00;1.27;;;1.13;;
11763;SDS011;5939;56.522;14.950;2023-04-01T09:28:14;2.20;;;1.30;;
11763;SDS011;5939;56.522;14.950;2023-04-01T09:30:38;3.10;;;1.20;;
11763;SDS011;5939;56.522;14.950;2023-04-01T09:41:27;1.93;;;1.00;;
11763;SDS011;5939;56.522;14.950;2023-04-01T09:57:37;1.33;;;1.23;;
11763;SDS011;5939;56.522;14.950;2023-04-01T10:14:55;1.43;;;1.10;;
11763;SDS011;5939;56.522;14.950;2023-04-01T10:20:34;1.57;;;1.00;;
11763;SDS011;5939;56.522;14.950;2023-04-01T10:23:18;1.73;;;1.13;;
11763;SDS011;5939;56.522;14.950;2023-04-01T10:57:38;1.73;;;1.20;;
11763;SDS011;5939;56.522;14.950;2023-04-01T11:00:55;1.60;;;1.10;;
11763;SDS011;5939;56.522;14.950;2023-04-01T11:04:05;2.93;;;1.20;;
11763;SDS011;5939;56.522;14.950;2023-04-01T11:22:58;1.33;;;1.00;;
11763;SDS011;5939;56.522;14.950;2023-04-01T11:26:06;2.27;;;1.40;;
11763;SDS011;5939;56.522;14.950;2023-04-01T11:31:37;1.40;;;1.20;;
11763;SDS011;5939;56.522;14.950;2023-04-01T11:46:24;1.23;;;1.10;;
11763;SDS011;5939;56.522;14.950;2023-04-01T11:49:23;2.07;;;1.30;;
11763;SDS011;5939;56.522;14.950;2023-04-01T12:03:18;1.97;;;1.30;;
11763;SDS011;5939;56.522;14.950;2023-04-01T12:14:17;1.40;;;1.30;;
11763;SDS011;5939;56.522;14.950;2023-04-01T12:17:07;1.70;;;1.30;;
11763;SDS011;5939;56.522;14.950;2023-04-01T12:19:59;1.57;;;1.20;;
11763;SDS011;5939;56.522;14.950;2023-04-01T12:22:43;1.90;;;1.10;;
11763;SDS011;5939;56.522;14.950;2023-04-01T12:31:06;1.50;;;1.20;;
11763;SDS011;5939;56.522;14.950;2023-04-01T12:36:47;1.70;;;1.43;;
11763;SDS011;5939;56.522;14.950;2023-04-01T12:39:44;2.40;;;1.40;;
11763;SDS011;5939;56.522;14.950;2023-04-01T12:54:02;1.70;;;1.00;;
11763;SDS011;5939;56.522;14.950;2023-04-01T12:56:50;2.87;;;1.30;;
11763;SDS011;5939;56.522;14.950;2023-04-01T13:02:36;3.30;;;1.20;;
11763;SDS011;5939;56.522;14.950;2023-04-01T13:11:20;1.63;;;1.20;;
11763;SDS011;5939;56.522;14.950;2023-04-01T13:16:42;2.93;;;0.97;;
11763;SDS011;5939;56.522;14.950;2023-04-01T13:22:20;1.07;;;0.97;;
11763;SDS011;5939;56.522;14.950;2023-04-01T13:30:39;0.80;;;0.80;;
11763;SDS011;5939;56.522;14.950;2023-04-01T13:33:17;1.30;;;1.20;;
11763;SDS011;5939;56.522;14.950;2023-04-01T13:39:08;1.30;;;1.20;;
11763;SDS011;5939;56.522;14.950;2023-04-01T13:44:51;1.90;;;1.10;;
11763;SDS011;5939;56.522;14.950;2023-04-01T13:56:00;1.10;;;1.00;;
11763;SDS011;5939;56.522;14.950;2023-04-01T14:01:36;1.30;;;1.20;;
11763;SDS011;5939;56.522;14.950;2023-04-01T14:04:16;0.87;;;0.87;;
11763;SDS011;5939;56.522;14.950;2023-04-01T14:32:47;1.37;;;1.10;;
11763;SDS011;5939;56.522;14.950;2023-04-01T14:35:27;1.30;;;1.10;;
11763;SDS011;5939;56.522;14.950;2023-04-01T14:38:24;2.20;;;1.00;;
11763;SDS011;5939;56.522;14.950;2023-04-01T14:41:02;1.40;;;1.10;;
11763;SDS011;5939;56.522;14.950;2023-04-01T14:44:08;1.10;;;0.97;;
11763;SDS011;5939;56.522;14.950;2023-04-01T14:49:42;1.00;;;0.80;;
11763;SDS011;5939;56.522;14.950;2023-04-01T14:55:01;1.10;;;1.00;;
11763;SDS011;5939;56.522;14.950;2023-04-01T14:57:42;1.70;;;0.90;;
11763;SDS011;5939;56.522;14.950;2023-04-01T15:00:25;1.27;;;1.00;;
11763;SDS011;5939;56.522;14.950;2023-04-01T15:02:54;1.77;;;1.07;;
11763;SDS011;5939;56.522;14.950;2023-04-01T15:05:49;1.10;;;1.00;;
11763;SDS011;5939;56.522;14.950;2023-04-01T15:08:28;1.17;;;1.00;;
11763;SDS011;5939;56.522;14.950;2023-04-01T15:10:59;0.97;;;0.90;;
11763;SDS011;5939;56.522;14.950;2023-04-01T15:21:23;0.93;;;0.77;;
11763;SDS011;5939;56.522;14.950;2023-04-01T15:27:11;0.80;;;0.80;;
11763;SDS011;5939;56.522;14.950;2023-04-01T15:42:30;1.50;;;0.90;;
11763;SDS011;5939;56.522;14.950;2023-04-01T15:50:35;0.80;;;0.70;;
11763;SDS011;5939;56.522;14.950;2023-04-01T15:53:18;1.30;;;1.00;;
11763;SDS011;5939;56.522;14.950;2023-04-01T15:58:57;1.27;;;0.67;;
11763;SDS011;5939;56.522;14.950;2023-04-01T16:17:57;1.00;;;0.80;;
11763;SDS011;5939;56.522;14.950;2023-04-01T16:23:58;1.10;;;0.80;;
11763;SDS011;5939;56.522;14.950;2023-04-01T16:29:48;0.80;;;0.70;;
11763;SDS011;5939;56.522;14.950;2023-04-01T16:37:53;0.90;;;0.80;;
11763;SDS011;5939;56.522;14.950;2023-04-01T16:43:28;1.13;;;0.80;;
11763;SDS011;5939;56.522;14.950;2023-04-01T16:46:12;0.67;;;0.67;;
11763;SDS011;5939;56.522;14.950;2023-04-01T16:49:02;1.03;;;0.70;;
11763;SDS011;5939;56.522;14.950;2023-04-01T16:54:30;0.80;;;0.70;;
11763;SDS011;5939;56.522;14.950;2023-04-01T16:57:25;0.97;;;0.70;;
11763;SDS011;5939;56.522;14.950;2023-04-01T17:02:23;1.47;;;0.70;;
11763;SDS011;5939;56.522;14.950;2023-04-01T17:04:59;1.30;;;0.60;;
11763;SDS011;5939;56.522;14.950;2023-04-01T17:21:18;0.73;;;0.70;;
11763;SDS011;5939;56.522;14.950;2023-04-01T17:46:20;0.60;;;0.60;;
11763;SDS011;5939;56.522;14.950;2023-04-01T17:51:48;1.63;;;0.80;;
11763;SDS011;5939;56.522;14.950;2023-04-01T17:54:41;1.40;;;1.30;;
11763;SDS011;5939;56.522;14.950;2023-04-01T18:10:41;9.53;;;8.00;;
11763;SDS011;5939;56.522;14.950;2023-04-01T18:21:52;12.10;;;9.57;;
11763;SDS011;5939;56.522;14.950;2023-04-01T18:24:28;12.10;;;9.63;;
11763;SDS011;5939;56.522;14.950;2023-04-01T18:27:09;12.30;;;9.50;;
11763;SDS011;5939;56.522;14.950;2023-04-01T18:29:49;9.90;;;8.17;;
11763;SDS011;5939;56.522;14.950;2023-04-01T18:32:26;10.63;;;8.00;;
11763;SDS011;5939;56.522;14.950;2023-04-01T18:38:32;8.47;;;6.90;;
11763;SDS011;5939;56.522;14.950;2023-04-01T18:41:13;7.17;;;6.03;;
11763;SDS011;5939;56.522;14.950;2023-04-01T18:52:39;6.27;;;5.37;;
11763;SDS011;5939;56.522;14.950;2023-04-01T19:00:26;5.30;;;3.70;;
11763;SDS011;5939;56.522;14.950;2023-04-01T19:05:36;4.30;;;3.60;;
11763;SDS011;5939;56.522;14.950;2023-04-01T19:08:16;3.67;;;3.10;;
11763;SDS011;5939;56.522;14.950;2023-04-01T19:11:01;3.07;;;2.57;;
11763;SDS011;5939;56.522;14.950;2023-04-01T19:13:55;3.10;;;2.80;;
11763;SDS011;5939;56.522;14.950;2023-04-01T19:16:49;2.50;;;2.30;;
11763;SDS011;5939;56.522;14.950;2023-04-01T19:20:08;2.90;;;2.50;;
11763;SDS011;5939;56.522;14.950;2023-04-01T19:33:58;2.33;;;2.10;;
11763;SDS011;5939;56.522;14.950;2023-04-01T19:41:40;2.20;;;1.80;;
11763;SDS011;5939;56.522;14.950;2023-04-01T19:49:51;2.70;;;1.60;;
11763;SDS011;5939;56.522;14.950;2023-04-01T19:52:41;2.00;;;1.60;;
11763;SDS011;5939;56.522;14.950;2023-04-01T19:55:19;2.93;;;1.60;;
11763;SDS011;5939;56.522;14.950;2023-04-01T20:00:35;3.43;;;2.13;;
11763;SDS011;5939;56.522;14.950;2023-04-01T20:08:39;4.10;;;2.40;;
11763;SDS011;5939;56.522;14.950;2023-04-01T20:17:07;4.10;;;2.60;;
11763;SDS011;5939;56.522;14.950;2023-04-01T20:19:50;3.50;;;2.40;;
11763;SDS011;5939;56.522;14.950;2023-04-01T20:25:05;3.83;;;2.00;;
11763;SDS011;5939;56.522;14.950;2023-04-01T20:27:55;2.70;;;2.10;;
11763;SDS011;5939;56.522;14.950;2023-04-01T20:30:28;2.87;;;2.30;;
11763;SDS011;5939;56.522;14.950;2023-04-01T20:38:31;2.50;;;1.70;;
11763;SDS011;5939;56.522;14.950;2023-04-01T20:41:20;2.47;;;1.70;;
11763;SDS011;5939;56.522;14.950;2023-04-01T20:46:46;3.03;;;1.57;;
11763;SDS011;5939;56.522;14.950;2023-04-01T20:52:17;2.23;;;1.23;;
11763;SDS011;5939;56.522;14.950;2023-04-01T21:00:38;1.30;;;1.20;;
11763;SDS011;5939;56.522;14.950;2023-04-01T21:14:15;1.40;;;0.90;;
11763;SDS011;5939;56.522;14.950;2023-04-01T21:37:36;0.90;;;0.80;;
11763;SDS011;5939;56.522;14.950;2023-04-01T21:54:16;2.93;;;0.87;;
11763;SDS011;5939;56.522;14.950;2023-04-01T21:57:27;1.00;;;0.70;;
11763;SDS011;5939;56.522;14.950;2023-04-01T22:00:25;1.50;;;0.73;;
11763;SDS011;5939;56.522;14.950;2023-04-01T22:03:08;0.87;;;0.80;;
11763;SDS011;5939;56.522;14.950;2023-04-01T22:05:48;0.70;;;0.70;;
11763;SDS011;5939;56.522;14.950;2023-04-01T22:08:32;0.70;;;0.70;;
11763;SDS011;5939;56.522;14.950;2023-04-01T22:13:53;1.30;;;0.90;;
11763;SDS011;5939;56.522;14.950;2023-04-01T22:16:28;0.50;;;0.50;;
11763;SDS011;5939;56.522;14.950;2023-04-01T22:21:43;0.80;;;0.80;;
11763;SDS011;5939;56.522;14.950;2023-04-01T22:26:58;0.47;;;0.43;;
11763;SDS011;5939;56.522;14.950;2023-04-01T22:32:09;0.73;;;0.70;;
11763;SDS011;5939;56.522;14.950;2023-04-01T22:42:53;1.13;;;0.60;;
11763;SDS011;5939;56.522;14.950;2023-04-01T22:45:31;0.50;;;0.50;;
11763;SDS011;5939;56.522;14.950;2023-04-01T22:51:06;0.90;;;0.80;;
11763;SDS011;5939;56.522;14.950;2023-04-01T22:59:17;0.60;;;0.60;;
11763;SDS011;5939;56.522;14.950;2023-04-01T23:01:52;0.77;;;0.60;;
11763;SDS011;5939;56.522;14.950;2023-04-01T23:04:23;0.97;;;0.80;;
11763;SDS011;5939;56.522;14.950;2023-04-01T23:06:55;0.73;;;0.73;;
11763;SDS011;5939;56.522;14.950;2023-04-01T23:09:34;1.10;;;0.70;;
11763;SDS011;5939;56.522;14.950;2023-04-01T23:12:03;1.53;;;0.80;;
11763;SDS011;5939;56.522;14.950;2023-04-01T23:14:49;0.77;;;0.77;;
11763;SDS011;5939;56.522;14.950;2023-04-01T23:20:22;1.47;;;0.70;;
11763;SDS011;5939;56.522;14.950;2023-04-01T23:23:18;0.67;;;0.60;;
11763;SDS011;5939;56.522;14.950;2023-04-01T23:26:00;0.90;;;0.70;;
11763;SDS011;5939;56.522;14.950;2023-04-01T23:28:55;0.60;;;0.60;;
11763;SDS011;5939;56.522;14.950;2023-04-01T23:36:38;0.80;;;0.80;;
11763;SDS011;5939;56.522;14.950;2023-04-01T23:39:26;0.70;;;0.50;;
11763;SDS011;5939;56.522;14.950;2023-04-01T23:41:56;1.27;;;0.70;;
11763;SDS011;5939;56.522;14.950;2023-04-01T23:44:43;0.50;;;0.50;;
11763;SDS011;5939;56.522;14.950;2023-04-01T23:47:12;1.30;;;0.70;;
11763;SDS011;5939;56.522;14.950;2023-04-01T23:49:43;0.60;;;0.60;;
11763;SDS011;5939;56.522;14.950;2023-04-01T23:54:55;1.43;;;0.80;;
